sensor_id;sensor_type;location;lat;lon;timestamp;P1;durP1;ratioP1;P2;durP2;ratioP2
29026;SDS011;16120;48.608;9.092;2024-02-16T00:01:19;111.53;;;8.40;;
29026;SDS011;16120;48.608;9.092;2024-02-16T00:05:15;112.37;;;7.93;;
29026;SDS011;16120;48.608;9.092;2024-02-16T00:09:10;112.07;;;8.77;;
29026;SDS011;16120;48.608;9.092;2024-02-16T00:13:06;111.80;;;8.23;;
29026;SDS011;16120;48.608;9.092;2024-02-16T00:17:02;112.30;;;8.37;;
29026;SDS011;16120;48.608;9.092;2024-02-16T00:20:57;111.37;;;7.90;;
29026;SDS011;16120;48.608;9.092;2024-02-16T00:24:52;111.80;;;8.00;;
29026;SDS011;16120;48.608;9.092;2024-02-16T00:28:48;112.37;;;8.90;;
29026;SDS011;16120;48.608;9.092;2024-02-16T00:32:44;111.90;;;7.93;;
29026;SDS011;16120;48.608;9.092;2024-02-16T00:36:39;111.17;;;8.07;;
29026;SDS011;16120;48.608;9.092;2024-02-16T00:40:34;112.37;;;8.07;;
29026;SDS011;16120;48.608;9.092;2024-02-16T00:44:30;111.50;;;8.10;;
29026;SDS011;16120;48.608;9.092;2024-02-16T00:48:26;111.20;;;7.70;;
29026;SDS011;16120;48.608;9.092;2024-02-16T00:52:21;112.57;;;8.70;;
29026;SDS011;16120;48.608;9.092;2024-02-16T00:56:16;111.67;;;8.37;;
29026;SDS011;16120;48.608;9.092;2024-02-16T01:00:13;112.67;;;8.40;;
29026;SDS011;16120;48.608;9.092;2024-02-16T01:04:08;112.57;;;9.00;;
29026;SDS011;16120;48.608;9.092;2024-02-16T01:08:04;112.57;;;9.33;;
29026;SDS011;16120;48.608;9.092;2024-02-16T01:11:59;111.37;;;8.40;;
29026;SDS011;16120;48.608;9.092;2024-02-16T01:15:55;111.90;;;7.77;;
29026;SDS011;16120;48.608;9.092;2024-02-16T01:19:51;111.77;;;8.20;;
29026;SDS011;16120;48.608;9.092;2024-02-16T01:23:46;112.90;;;8.37;;
29026;SDS011;16120;48.608;9.092;2024-02-16T01:27:41;112.57;;;8.37;;
29026;SDS011;16120;48.608;9.092;2024-02-16T01:31:37;111.90;;;8.90;;
29026;SDS011;16120;48.608;9.092;2024-02-16T01:35:33;112.20;;;7.93;;
29026;SDS011;16120;48.608;9.092;2024-02-16T01:39:28;112.57;;;9.00;;
29026;SDS011;16120;48.608;9.092;2024-02-16T01:43:23;112.20;;;8.50;;
29026;SDS011;16120;48.608;9.092;2024-02-16T01:47:20;112.67;;;8.60;;
29026;SDS011;16120;48.608;9.092;2024-02-16T01:51:15;112.33;;;9.40;;
29026;SDS011;16120;48.608;9.092;2024-02-16T01:55:10;112.17;;;8.50;;
29026;SDS011;16120;48.608;9.092;2024-02-16T01:59:06;112.47;;;9.00;;
29026;SDS011;16120;48.608;9.092;2024-02-16T02:03:03;112.53;;;8.75;;
29026;SDS011;16120;48.608;9.092;2024-02-16T02:06:58;111.70;;;8.40;;
29026;SDS011;16120;48.608;9.092;2024-02-16T02:10:53;111.40;;;7.97;;
29026;SDS011;16120;48.608;9.092;2024-02-16T02:14:48;112.30;;;8.07;;
29026;SDS011;16120;48.608;9.092;2024-02-16T02:18:45;111.72;;;8.32;;
29026;SDS011;16120;48.608;9.092;2024-02-16T02:22:41;111.67;;;7.93;;
29026;SDS011;16120;48.608;9.092;2024-02-16T02:26:37;111.37;;;8.87;;
29026;SDS011;16120;48.608;9.092;2024-02-16T02:30:32;112.17;;;8.70;;
29026;SDS011;16120;48.608;9.092;2024-02-16T02:34:27;111.87;;;8.27;;
29026;SDS011;16120;48.608;9.092;2024-02-16T02:38:24;111.60;;;8.13;;
29026;SDS011;16120;48.608;9.092;2024-02-16T02:42:19;111.40;;;7.90;;
29026;SDS011;16120;48.608;9.092;2024-02-16T02:46:14;110.50;;;8.00;;
29026;SDS011;16120;48.608;9.092;2024-02-16T02:50:10;110.77;;;8.17;;
29026;SDS011;16120;48.608;9.092;2024-02-16T02:54:06;111.37;;;8.23;;
29026;SDS011;16120;48.608;9.092;2024-02-16T02:58:01;111.40;;;8.23;;
29026;SDS011;16120;48.608;9.092;2024-02-16T03:01:57;112.27;;;8.17;;
29026;SDS011;16120;48.608;9.092;2024-02-16T03:05:52;112.27;;;8.50;;
29026;SDS011;16120;48.608;9.092;2024-02-16T03:09:49;111.83;;;8.03;;
29026;SDS011;16120;48.608;9.092;2024-02-16T03:13:44;112.40;;;8.13;;
29026;SDS011;16120;48.608;9.092;2024-02-16T03:17:39;111.47;;;8.00;;
29026;SDS011;16120;48.608;9.092;2024-02-16T03:21:34;112.57;;;8.47;;
29026;SDS011;16120;48.608;9.092;2024-02-16T03:25:31;112.67;;;8.20;;
29026;SDS011;16120;48.608;9.092;2024-02-16T03:29:26;112.13;;;8.30;;
29026;SDS011;16120;48.608;9.092;2024-02-16T03:33:21;111.80;;;8.03;;
29026;SDS011;16120;48.608;9.092;2024-02-16T03:37:16;111.97;;;7.97;;
29026;SDS011;16120;48.608;9.092;2024-02-16T03:41:13;111.93;;;8.23;;
29026;SDS011;16120;48.608;9.092;2024-02-16T03:45:09;111.67;;;8.30;;
29026;SDS011;16120;48.608;9.092;2024-02-16T03:49:04;111.77;;;8.00;;
29026;SDS011;16120;48.608;9.092;2024-02-16T03:52:59;111.80;;;7.93;;
29026;SDS011;16120;48.608;9.092;2024-02-16T03:56:56;111.70;;;8.23;;
29026;SDS011;16120;48.608;9.092;2024-02-16T04:00:51;111.93;;;8.60;;
29026;SDS011;16120;48.608;9.092;2024-02-16T04:04:46;111.23;;;7.93;;
29026;SDS011;16120;48.608;9.092;2024-02-16T04:08:42;112.37;;;8.87;;
29026;SDS011;16120;48.608;9.092;2024-02-16T04:12:38;111.60;;;7.77;;
29026;SDS011;16120;48.608;9.092;2024-02-16T04:16:33;112.17;;;8.57;;
29026;SDS011;16120;48.608;9.092;2024-02-16T04:20:28;111.97;;;8.30;;
29026;SDS011;16120;48.608;9.092;2024-02-16T04:24:24;112.13;;;8.87;;
29026;SDS011;16120;48.608;9.092;2024-02-16T04:28:20;112.10;;;8.60;;
29026;SDS011;16120;48.608;9.092;2024-02-16T04:32:15;111.57;;;8.70;;
29026;SDS011;16120;48.608;9.092;2024-02-16T04:36:11;112.00;;;8.60;;
29026;SDS011;16120;48.608;9.092;2024-02-16T04:40:06;111.82;;;8.48;;
29026;SDS011;16120;48.608;9.092;2024-02-16T04:44:03;111.50;;;8.33;;
29026;SDS011;16120;48.608;9.092;2024-02-16T04:48:01;111.97;;;8.57;;
29026;SDS011;16120;48.608;9.092;2024-02-16T04:51:57;112.50;;;8.57;;
29026;SDS011;16120;48.608;9.092;2024-02-16T04:55:52;112.50;;;8.43;;
29026;SDS011;16120;48.608;9.092;2024-02-16T04:59:48;112.00;;;8.43;;
29026;SDS011;16120;48.608;9.092;2024-02-16T05:03:44;111.37;;;8.57;;
29026;SDS011;16120;48.608;9.092;2024-02-16T05:07:39;112.33;;;8.03;;
29026;SDS011;16120;48.608;9.092;2024-02-16T05:11:34;111.90;;;8.13;;
29026;SDS011;16120;48.608;9.092;2024-02-16T05:15:30;112.67;;;9.40;;
29026;SDS011;16120;48.608;9.092;2024-02-16T05:19:26;111.60;;;8.30;;
29026;SDS011;16120;48.608;9.092;2024-02-16T05:23:21;112.17;;;8.93;;
29026;SDS011;16120;48.608;9.092;2024-02-16T05:27:16;112.00;;;9.03;;
29026;SDS011;16120;48.608;9.092;2024-02-16T05:31:16;111.87;;;8.40;;
29026;SDS011;16120;48.608;9.092;2024-02-16T05:35:11;111.67;;;8.60;;
29026;SDS011;16120;48.608;9.092;2024-02-16T05:39:06;112.33;;;9.30;;
29026;SDS011;16120;48.608;9.092;2024-02-16T05:43:02;111.17;;;8.47;;
29026;SDS011;16120;48.608;9.092;2024-02-16T05:47:00;111.50;;;8.23;;
29026;SDS011;16120;48.608;9.092;2024-02-16T05:50:56;112.30;;;8.60;;
29026;SDS011;16120;48.608;9.092;2024-02-16T05:54:51;111.67;;;8.17;;
29026;SDS011;16120;48.608;9.092;2024-02-16T05:58:47;112.10;;;8.80;;
29026;SDS011;16120;48.608;9.092;2024-02-16T06:02:43;112.27;;;8.33;;
29026;SDS011;16120;48.608;9.092;2024-02-16T06:06:38;112.37;;;9.00;;
29026;SDS011;16120;48.608;9.092;2024-02-16T06:10:34;112.33;;;9.00;;
29026;SDS011;16120;48.608;9.092;2024-02-16T06:14:29;112.50;;;8.90;;
29026;SDS011;16120;48.608;9.092;2024-02-16T06:18:25;112.50;;;8.90;;
29026;SDS011;16120;48.608;9.092;2024-02-16T06:22:21;112.37;;;8.87;;
29026;SDS011;16120;48.608;9.092;2024-02-16T06:26:16;111.50;;;8.07;;
29026;SDS011;16120;48.608;9.092;2024-02-16T06:30:11;112.50;;;8.50;;
29026;SDS011;16120;48.608;9.092;2024-02-16T06:34:08;112.00;;;8.27;;
29026;SDS011;16120;48.608;9.092;2024-02-16T06:38:03;112.20;;;8.70;;
29026;SDS011;16120;48.608;9.092;2024-02-16T06:41:59;111.77;;;8.27;;
29026;SDS011;16120;48.608;9.092;2024-02-16T06:45:54;112.73;;;8.50;;
29026;SDS011;16120;48.608;9.092;2024-02-16T06:49:50;111.80;;;8.57;;
29026;SDS011;16120;48.608;9.092;2024-02-16T06:53:45;112.27;;;8.77;;
29026;SDS011;16120;48.608;9.092;2024-02-16T06:57:41;112.20;;;8.67;;
29026;SDS011;16120;48.608;9.092;2024-02-16T07:01:36;111.80;;;7.67;;
29026;SDS011;16120;48.608;9.092;2024-02-16T07:05:32;111.17;;;7.67;;
29026;SDS011;16120;48.608;9.092;2024-02-16T07:09:27;111.70;;;8.40;;
29026;SDS011;16120;48.608;9.092;2024-02-16T07:13:23;111.30;;;8.23;;
29026;SDS011;16120;48.608;9.092;2024-02-16T07:17:18;110.87;;;7.87;;
29026;SDS011;16120;48.608;9.092;2024-02-16T07:21:14;110.77;;;8.03;;
29026;SDS011;16120;48.608;9.092;2024-02-16T07:25:10;110.50;;;7.77;;
29026;SDS011;16120;48.608;9.092;2024-02-16T07:29:05;110.77;;;7.93;;
29026;SDS011;16120;48.608;9.092;2024-02-16T07:33:00;110.30;;;8.07;;
29026;SDS011;16120;48.608;9.092;2024-02-16T07:36:57;109.87;;;8.00;;
29026;SDS011;16120;48.608;9.092;2024-02-16T07:40:52;109.80;;;7.87;;
29026;SDS011;16120;48.608;9.092;2024-02-16T07:44:48;109.70;;;7.80;;
29026;SDS011;16120;48.608;9.092;2024-02-16T07:48:43;109.43;;;7.93;;
29026;SDS011;16120;48.608;9.092;2024-02-16T07:52:40;109.93;;;7.80;;
29026;SDS011;16120;48.608;9.092;2024-02-16T07:56:35;109.07;;;7.70;;
29026;SDS011;16120;48.608;9.092;2024-02-16T08:00:30;109.20;;;7.63;;
29026;SDS011;16120;48.608;9.092;2024-02-16T08:04:25;109.60;;;8.70;;
29026;SDS011;16120;48.608;9.092;2024-02-16T08:08:23;109.17;;;8.10;;
29026;SDS011;16120;48.608;9.092;2024-02-16T08:12:18;108.57;;;7.70;;
29026;SDS011;16120;48.608;9.092;2024-02-16T08:16:13;108.87;;;8.10;;
29026;SDS011;16120;48.608;9.092;2024-02-16T08:20:08;108.20;;;7.55;;
29026;SDS011;16120;48.608;9.092;2024-02-16T08:24:05;108.70;;;7.70;;
29026;SDS011;16120;48.608;9.092;2024-02-16T08:28:01;108.57;;;7.70;;
29026;SDS011;16120;48.608;9.092;2024-02-16T08:31:56;108.37;;;8.00;;
29026;SDS011;16120;48.608;9.092;2024-02-16T08:35:51;107.80;;;7.87;;
29026;SDS011;16120;48.608;9.092;2024-02-16T08:39:48;108.00;;;7.80;;
29026;SDS011;16120;48.608;9.092;2024-02-16T08:43:43;107.97;;;7.70;;
29026;SDS011;16120;48.608;9.092;2024-02-16T08:47:38;107.70;;;7.53;;
29026;SDS011;16120;48.608;9.092;2024-02-16T08:51:33;107.07;;;7.43;;
29026;SDS011;16120;48.608;9.092;2024-02-16T08:55:30;108.07;;;7.70;;
29026;SDS011;16120;48.608;9.092;2024-02-16T08:59:25;107.17;;;8.20;;
29026;SDS011;16120;48.608;9.092;2024-02-16T09:03:20;106.40;;;7.93;;
29026;SDS011;16120;48.608;9.092;2024-02-16T09:07:15;106.47;;;7.35;;
29026;SDS011;16120;48.608;9.092;2024-02-16T09:11:12;106.17;;;7.90;;
29026;SDS011;16120;48.608;9.092;2024-02-16T09:15:07;105.87;;;7.60;;
29026;SDS011;16120;48.608;9.092;2024-02-16T09:19:03;105.20;;;7.90;;
29026;SDS011;16120;48.608;9.092;2024-02-16T09:22:58;104.80;;;7.50;;
29026;SDS011;16120;48.608;9.092;2024-02-16T09:26:54;104.80;;;7.90;;
29026;SDS011;16120;48.608;9.092;2024-02-16T09:30:50;105.70;;;9.03;;
29026;SDS011;16120;48.608;9.092;2024-02-16T09:34:45;104.70;;;7.80;;
29026;SDS011;16120;48.608;9.092;2024-02-16T09:38:40;104.17;;;7.80;;
29026;SDS011;16120;48.608;9.092;2024-02-16T09:42:37;103.50;;;7.57;;
29026;SDS011;16120;48.608;9.092;2024-02-16T09:46:33;103.97;;;8.03;;
29026;SDS011;16120;48.608;9.092;2024-02-16T09:50:28;103.33;;;7.57;;
29026;SDS011;16120;48.608;9.092;2024-02-16T09:54:23;103.57;;;7.80;;
29026;SDS011;16120;48.608;9.092;2024-02-16T09:58:20;103.37;;;7.90;;
29026;SDS011;16120;48.608;9.092;2024-02-16T10:02:15;102.80;;;7.80;;
29026;SDS011;16120;48.608;9.092;2024-02-16T10:06:10;102.20;;;8.00;;
29026;SDS011;16120;48.608;9.092;2024-02-16T10:10:06;102.43;;;8.27;;
29026;SDS011;16120;48.608;9.092;2024-02-16T10:14:03;102.67;;;8.40;;
29026;SDS011;16120;48.608;9.092;2024-02-16T10:17:58;102.47;;;7.60;;
29026;SDS011;16120;48.608;9.092;2024-02-16T10:21:53;102.57;;;7.63;;
29026;SDS011;16120;48.608;9.092;2024-02-16T10:25:49;102.30;;;7.97;;
29026;SDS011;16120;48.608;9.092;2024-02-16T10:29:46;102.10;;;8.30;;
29026;SDS011;16120;48.608;9.092;2024-02-16T10:33:41;102.57;;;7.97;;
29026;SDS011;16120;48.608;9.092;2024-02-16T10:37:37;102.07;;;7.47;;
29026;SDS011;16120;48.608;9.092;2024-02-16T10:41:35;101.87;;;7.80;;
29026;SDS011;16120;48.608;9.092;2024-02-16T10:45:33;102.17;;;8.17;;
29026;SDS011;16120;48.608;9.092;2024-02-16T10:49:28;101.80;;;7.53;;
29026;SDS011;16120;48.608;9.092;2024-02-16T10:53:25;102.60;;;7.20;;
29026;SDS011;16120;48.608;9.092;2024-02-16T10:57:22;101.47;;;7.50;;
29026;SDS011;16120;48.608;9.092;2024-02-16T11:01:19;101.60;;;7.23;;
29026;SDS011;16120;48.608;9.092;2024-02-16T11:05:14;101.70;;;7.90;;
29026;SDS011;16120;48.608;9.092;2024-02-16T11:09:22;101.37;;;8.07;;
29026;SDS011;16120;48.608;9.092;2024-02-16T11:13:21;101.20;;;7.97;;
29026;SDS011;16120;48.608;9.092;2024-02-16T11:17:21;101.27;;;8.30;;
29026;SDS011;16120;48.608;9.092;2024-02-16T11:21:17;101.17;;;7.83;;
29026;SDS011;16120;48.608;9.092;2024-02-16T11:25:12;100.67;;;7.63;;
29026;SDS011;16120;48.608;9.092;2024-02-16T11:29:08;100.40;;;8.20;;
29026;SDS011;16120;48.608;9.092;2024-02-16T11:33:05;101.43;;;7.70;;
29026;SDS011;16120;48.608;9.092;2024-02-16T11:37:01;100.27;;;8.03;;
29026;SDS011;16120;48.608;9.092;2024-02-16T11:40:57;99.80;;;7.50;;
29026;SDS011;16120;48.608;9.092;2024-02-16T11:44:52;100.27;;;7.90;;
29026;SDS011;16120;48.608;9.092;2024-02-16T11:48:49;100.57;;;7.90;;
29026;SDS011;16120;48.608;9.092;2024-02-16T11:52:45;100.30;;;8.03;;
29026;SDS011;16120;48.608;9.092;2024-02-16T11:56:42;100.33;;;8.50;;
29026;SDS011;16120;48.608;9.092;2024-02-16T12:00:37;100.47;;;8.63;;
29026;SDS011;16120;48.608;9.092;2024-02-16T12:04:35;101.13;;;8.50;;
29026;SDS011;16120;48.608;9.092;2024-02-16T12:08:34;99.50;;;7.90;;
29026;SDS011;16120;48.608;9.092;2024-02-16T12:12:30;100.67;;;8.40;;
29026;SDS011;16120;48.608;9.092;2024-02-16T12:16:26;100.30;;;7.70;;
29026;SDS011;16120;48.608;9.092;2024-02-16T12:20:22;100.57;;;8.47;;
29026;SDS011;16120;48.608;9.092;2024-02-16T12:24:17;100.17;;;8.43;;
29026;SDS011;16120;48.608;9.092;2024-02-16T12:28:12;100.80;;;8.63;;
29026;SDS011;16120;48.608;9.092;2024-02-16T12:32:08;100.00;;;8.07;;
29026;SDS011;16120;48.608;9.092;2024-02-16T12:36:05;100.47;;;7.87;;
29026;SDS011;16120;48.608;9.092;2024-02-16T12:40:00;100.10;;;7.60;;
29026;SDS011;16120;48.608;9.092;2024-02-16T12:43:55;99.77;;;7.73;;
29026;SDS011;16120;48.608;9.092;2024-02-16T12:47:50;100.17;;;8.13;;
29026;SDS011;16120;48.608;9.092;2024-02-16T12:51:47;100.20;;;7.80;;
29026;SDS011;16120;48.608;9.092;2024-02-16T12:55:42;100.17;;;7.67;;
29026;SDS011;16120;48.608;9.092;2024-02-16T12:59:37;100.47;;;8.50;;
29026;SDS011;16120;48.608;9.092;2024-02-16T13:03:33;100.10;;;7.87;;
29026;SDS011;16120;48.608;9.092;2024-02-16T13:07:30;100.07;;;8.10;;
29026;SDS011;16120;48.608;9.092;2024-02-16T13:11:25;101.77;;;8.03;;
29026;SDS011;16120;48.608;9.092;2024-02-16T13:15:20;100.20;;;7.83;;
29026;SDS011;16120;48.608;9.092;2024-02-16T13:19:15;99.73;;;7.50;;
29026;SDS011;16120;48.608;9.092;2024-02-16T13:23:12;99.77;;;8.50;;
29026;SDS011;16120;48.608;9.092;2024-02-16T13:27:07;100.00;;;7.60;;
29026;SDS011;16120;48.608;9.092;2024-02-16T13:31:02;100.70;;;8.37;;
29026;SDS011;16120;48.608;9.092;2024-02-16T13:34:57;100.30;;;7.70;;
29026;SDS011;16120;48.608;9.092;2024-02-16T13:38:54;100.87;;;8.20;;
29026;SDS011;16120;48.608;9.092;2024-02-16T13:42:49;100.30;;;8.20;;
29026;SDS011;16120;48.608;9.092;2024-02-16T13:46:44;100.23;;;8.13;;
29026;SDS011;16120;48.608;9.092;2024-02-16T13:50:43;100.20;;;7.67;;
29026;SDS011;16120;48.608;9.092;2024-02-16T13:54:39;100.50;;;8.03;;
29026;SDS011;16120;48.608;9.092;2024-02-16T13:58:34;100.20;;;7.67;;
29026;SDS011;16120;48.608;9.092;2024-02-16T14:02:29;99.70;;;8.03;;
29026;SDS011;16120;48.608;9.092;2024-02-16T14:06:25;100.50;;;7.43;;
29026;SDS011;16120;48.608;9.092;2024-02-16T14:10:21;100.67;;;8.00;;
29026;SDS011;16120;48.608;9.092;2024-02-16T14:14:16;99.77;;;7.60;;
29026;SDS011;16120;48.608;9.092;2024-02-16T14:18:12;99.70;;;7.27;;
29026;SDS011;16120;48.608;9.092;2024-02-16T14:22:07;99.57;;;8.00;;
29026;SDS011;16120;48.608;9.092;2024-02-16T14:26:03;100.27;;;7.37;;
29026;SDS011;16120;48.608;9.092;2024-02-16T14:29:59;100.80;;;7.60;;
29026;SDS011;16120;48.608;9.092;2024-02-16T14:33:54;100.87;;;8.40;;
29026;SDS011;16120;48.608;9.092;2024-02-16T14:37:49;101.37;;;8.00;;
29026;SDS011;16120;48.608;9.092;2024-02-16T14:41:46;100.80;;;8.50;;
29026;SDS011;16120;48.608;9.092;2024-02-16T14:45:41;100.80;;;7.80;;
29026;SDS011;16120;48.608;9.092;2024-02-16T14:49:36;100.30;;;7.47;;
29026;SDS011;16120;48.608;9.092;2024-02-16T14:53:31;100.90;;;7.90;;
29026;SDS011;16120;48.608;9.092;2024-02-16T14:57:28;100.87;;;7.77;;
29026;SDS011;16120;48.608;9.092;2024-02-16T15:01:23;101.50;;;8.40;;
29026;SDS011;16120;48.608;9.092;2024-02-16T15:05:18;101.30;;;7.67;;
29026;SDS011;16120;48.608;9.092;2024-02-16T15:09:13;101.57;;;8.20;;
29026;SDS011;16120;48.608;9.092;2024-02-16T15:13:10;101.47;;;7.50;;
29026;SDS011;16120;48.608;9.092;2024-02-16T15:17:05;100.57;;;7.23;;
29026;SDS011;16120;48.608;9.092;2024-02-16T15:21:00;101.80;;;7.80;;
29026;SDS011;16120;48.608;9.092;2024-02-16T15:24:55;101.10;;;7.83;;
29026;SDS011;16120;48.608;9.092;2024-02-16T15:28:52;100.87;;;7.70;;
29026;SDS011;16120;48.608;9.092;2024-02-16T15:32:47;101.27;;;8.10;;
29026;SDS011;16120;48.608;9.092;2024-02-16T15:36:42;101.10;;;7.50;;
29026;SDS011;16120;48.608;9.092;2024-02-16T15:40:37;100.93;;;7.53;;
29026;SDS011;16120;48.608;9.092;2024-02-16T15:44:34;101.07;;;7.47;;
29026;SDS011;16120;48.608;9.092;2024-02-16T15:48:29;101.23;;;7.80;;
29026;SDS011;16120;48.608;9.092;2024-02-16T15:52:24;101.10;;;7.63;;
29026;SDS011;16120;48.608;9.092;2024-02-16T15:56:20;101.63;;;7.80;;
29026;SDS011;16120;48.608;9.092;2024-02-16T16:00:17;102.25;;;8.30;;
29026;SDS011;16120;48.608;9.092;2024-02-16T16:04:12;101.10;;;7.10;;
29026;SDS011;16120;48.608;9.092;2024-02-16T16:08:07;102.07;;;8.80;;
29026;SDS011;16120;48.608;9.092;2024-02-16T16:12:03;101.70;;;7.83;;
29026;SDS011;16120;48.608;9.092;2024-02-16T16:15:59;101.47;;;8.10;;
29026;SDS011;16120;48.608;9.092;2024-02-16T16:19:54;101.17;;;7.50;;
29026;SDS011;16120;48.608;9.092;2024-02-16T16:23:50;102.87;;;8.37;;
29026;SDS011;16120;48.608;9.092;2024-02-16T16:27:45;101.97;;;8.20;;
29026;SDS011;16120;48.608;9.092;2024-02-16T16:31:42;101.50;;;7.30;;
29026;SDS011;16120;48.608;9.092;2024-02-16T16:35:37;102.10;;;7.83;;
29026;SDS011;16120;48.608;9.092;2024-02-16T16:39:32;102.27;;;7.90;;
29026;SDS011;16120;48.608;9.092;2024-02-16T16:43:27;101.87;;;7.57;;
29026;SDS011;16120;48.608;9.092;2024-02-16T16:47:24;102.57;;;8.27;;
29026;SDS011;16120;48.608;9.092;2024-02-16T16:51:19;102.20;;;7.70;;
29026;SDS011;16120;48.608;9.092;2024-02-16T16:55:14;102.97;;;8.53;;
29026;SDS011;16120;48.608;9.092;2024-02-16T16:59:10;102.27;;;7.70;;
29026;SDS011;16120;48.608;9.092;2024-02-16T17:03:06;102.93;;;7.80;;
29026;SDS011;16120;48.608;9.092;2024-02-16T17:07:01;103.10;;;7.40;;
29026;SDS011;16120;48.608;9.092;2024-02-16T17:10:57;103.30;;;8.60;;
29026;SDS011;16120;48.608;9.092;2024-02-16T17:14:52;102.87;;;8.33;;
29026;SDS011;16120;48.608;9.092;2024-02-16T17:18:49;103.20;;;8.10;;
29026;SDS011;16120;48.608;9.092;2024-02-16T17:22:44;103.60;;;8.30;;
29026;SDS011;16120;48.608;9.092;2024-02-16T17:26:39;105.10;;;8.10;;
29026;SDS011;16120;48.608;9.092;2024-02-16T17:30:34;103.30;;;7.70;;
29026;SDS011;16120;48.608;9.092;2024-02-16T17:34:31;103.30;;;7.40;;
29026;SDS011;16120;48.608;9.092;2024-02-16T17:38:26;103.50;;;8.00;;
29026;SDS011;16120;48.608;9.092;2024-02-16T17:42:21;103.27;;;8.23;;
29026;SDS011;16120;48.608;9.092;2024-02-16T17:46:16;103.27;;;7.90;;
29026;SDS011;16120;48.608;9.092;2024-02-16T17:50:13;103.37;;;7.80;;
29026;SDS011;16120;48.608;9.092;2024-02-16T17:54:08;103.40;;;8.20;;
29026;SDS011;16120;48.608;9.092;2024-02-16T17:58:03;103.57;;;8.00;;
29026;SDS011;16120;48.608;9.092;2024-02-16T18:01:58;103.80;;;7.70;;
29026;SDS011;16120;48.608;9.092;2024-02-16T18:05:55;103.80;;;8.00;;
29026;SDS011;16120;48.608;9.092;2024-02-16T18:09:50;103.37;;;8.00;;
29026;SDS011;16120;48.608;9.092;2024-02-16T18:13:45;103.80;;;8.53;;
29026;SDS011;16120;48.608;9.092;2024-02-16T18:17:40;104.00;;;7.63;;
29026;SDS011;16120;48.608;9.092;2024-02-16T18:21:37;103.37;;;7.60;;
29026;SDS011;16120;48.608;9.092;2024-02-16T18:25:32;103.77;;;8.27;;
29026;SDS011;16120;48.608;9.092;2024-02-16T18:29:27;103.37;;;7.60;;
29026;SDS011;16120;48.608;9.092;2024-02-16T18:33:22;104.30;;;8.10;;
29026;SDS011;16120;48.608;9.092;2024-02-16T18:37:19;104.00;;;8.20;;
29026;SDS011;16120;48.608;9.092;2024-02-16T18:41:14;103.97;;;8.80;;
29026;SDS011;16120;48.608;9.092;2024-02-16T18:45:09;103.38;;;7.82;;
29026;SDS011;16120;48.608;9.092;2024-02-16T18:49:05;103.78;;;7.95;;
29026;SDS011;16120;48.608;9.092;2024-02-16T18:53:01;104.37;;;8.20;;
29026;SDS011;16120;48.608;9.092;2024-02-16T18:56:56;104.10;;;8.10;;
29026;SDS011;16120;48.608;9.092;2024-02-16T19:00:52;104.17;;;8.03;;
29026;SDS011;16120;48.608;9.092;2024-02-16T19:04:47;103.57;;;7.67;;
29026;SDS011;16120;48.608;9.092;2024-02-16T19:08:43;103.67;;;7.93;;
29026;SDS011;16120;48.608;9.092;2024-02-16T19:12:38;104.00;;;7.60;;
29026;SDS011;16120;48.608;9.092;2024-02-16T19:16:34;104.20;;;8.10;;
29026;SDS011;16120;48.608;9.092;2024-02-16T19:20:29;103.87;;;7.20;;
29026;SDS011;16120;48.608;9.092;2024-02-16T19:24:26;102.87;;;7.73;;
29026;SDS011;16120;48.608;9.092;2024-02-16T19:28:21;104.30;;;7.80;;
29026;SDS011;16120;48.608;9.092;2024-02-16T19:32:16;104.28;;;8.00;;
29026;SDS011;16120;48.608;9.092;2024-02-16T19:36:11;103.93;;;7.73;;
29026;SDS011;16120;48.608;9.092;2024-02-16T19:40:09;103.07;;;7.30;;
29026;SDS011;16120;48.608;9.092;2024-02-16T19:44:04;104.17;;;8.50;;
29026;SDS011;16120;48.608;9.092;2024-02-16T19:47:59;104.80;;;8.53;;
29026;SDS011;16120;48.608;9.092;2024-02-16T19:51:54;103.23;;;7.60;;
29026;SDS011;16120;48.608;9.092;2024-02-16T19:55:51;104.07;;;7.70;;
29026;SDS011;16120;48.608;9.092;2024-02-16T19:59:46;104.17;;;7.37;;
29026;SDS011;16120;48.608;9.092;2024-02-16T20:03:41;103.67;;;7.77;;
29026;SDS011;16120;48.608;9.092;2024-02-16T20:07:36;104.70;;;7.80;;
29026;SDS011;16120;48.608;9.092;2024-02-16T20:11:33;104.20;;;7.90;;
29026;SDS011;16120;48.608;9.092;2024-02-16T20:15:28;103.97;;;7.60;;
29026;SDS011;16120;48.608;9.092;2024-02-16T20:19:23;104.70;;;7.83;;
29026;SDS011;16120;48.608;9.092;2024-02-16T20:23:18;104.37;;;7.43;;
29026;SDS011;16120;48.608;9.092;2024-02-16T20:27:15;103.10;;;7.40;;
29026;SDS011;16120;48.608;9.092;2024-02-16T20:31:10;103.40;;;7.93;;
29026;SDS011;16120;48.608;9.092;2024-02-16T20:35:06;104.10;;;7.50;;
29026;SDS011;16120;48.608;9.092;2024-02-16T20:39:01;103.50;;;7.43;;
29026;SDS011;16120;48.608;9.092;2024-02-16T20:42:57;103.67;;;7.80;;
29026;SDS011;16120;48.608;9.092;2024-02-16T20:46:52;104.67;;;7.80;;
29026;SDS011;16120;48.608;9.092;2024-02-16T20:50:48;105.00;;;8.00;;
29026;SDS011;16120;48.608;9.092;2024-02-16T20:54:43;104.67;;;7.67;;
29026;SDS011;16120;48.608;9.092;2024-02-16T20:58:39;103.93;;;7.00;;
29026;SDS011;16120;48.608;9.092;2024-02-16T21:02:35;104.17;;;7.77;;
29026;SDS011;16120;48.608;9.092;2024-02-16T21:06:30;104.50;;;7.90;;
29026;SDS011;16120;48.608;9.092;2024-02-16T21:10:25;104.23;;;7.77;;
29026;SDS011;16120;48.608;9.092;2024-02-16T21:14:22;104.87;;;7.80;;
29026;SDS011;16120;48.608;9.092;2024-02-16T21:18:17;105.00;;;8.10;;
29026;SDS011;16120;48.608;9.092;2024-02-16T21:22:12;105.17;;;7.83;;
29026;SDS011;16120;48.608;9.092;2024-02-16T21:26:08;105.57;;;8.07;;
29026;SDS011;16120;48.608;9.092;2024-02-16T21:30:05;104.97;;;7.77;;
29026;SDS011;16120;48.608;9.092;2024-02-16T21:34:00;104.50;;;7.20;;
29026;SDS011;16120;48.608;9.092;2024-02-16T21:37:55;104.67;;;7.60;;
29026;SDS011;16120;48.608;9.092;2024-02-16T21:41:51;104.87;;;7.40;;
29026;SDS011;16120;48.608;9.092;2024-02-16T21:45:47;104.77;;;7.23;;
29026;SDS011;16120;48.608;9.092;2024-02-16T21:49:42;104.70;;;7.57;;
29026;SDS011;16120;48.608;9.092;2024-02-16T21:53:37;104.57;;;7.20;;
29026;SDS011;16120;48.608;9.092;2024-02-16T21:57:33;105.47;;;7.90;;
29026;SDS011;16120;48.608;9.092;2024-02-16T22:01:29;104.97;;;7.67;;
29026;SDS011;16120;48.608;9.092;2024-02-16T22:05:24;106.37;;;8.30;;
29026;SDS011;16120;48.608;9.092;2024-02-16T22:09:21;105.57;;;8.03;;
29026;SDS011;16120;48.608;9.092;2024-02-16T22:13:16;106.40;;;8.07;;
29026;SDS011;16120;48.608;9.092;2024-02-16T22:17:12;106.10;;;8.20;;
29026;SDS011;16120;48.608;9.092;2024-02-16T22:21:07;105.70;;;8.17;;
29026;SDS011;16120;48.608;9.092;2024-02-16T22:25:03;105.23;;;8.20;;
29026;SDS011;16120;48.608;9.092;2024-02-16T22:28:58;106.17;;;8.13;;
29026;SDS011;16120;48.608;9.092;2024-02-16T22:32:55;105.60;;;8.20;;
29026;SDS011;16120;48.608;9.092;2024-02-16T22:36:50;106.27;;;8.07;;
29026;SDS011;16120;48.608;9.092;2024-02-16T22:40:45;105.83;;;7.87;;
29026;SDS011;16120;48.608;9.092;2024-02-16T22:44:40;105.40;;;7.87;;
29026;SDS011;16120;48.608;9.092;2024-02-16T22:48:37;106.27;;;7.93;;
29026;SDS011;16120;48.608;9.092;2024-02-16T22:52:32;106.77;;;8.07;;
29026;SDS011;16120;48.608;9.092;2024-02-16T22:56:27;106.93;;;8.30;;